Ankeny, Iowa
Current Conditions -  °F | °C
As of 10:55 AM on Tuesday 27 Jan 2015 (Local Time) from KIKV Reporting Station
Clear Clear  
Wind Chill: 35°   Ceiling: Unl
Heat Index: 39°   Visibility: 10mi
Dew Point: 30°   Wind: 6mph
Humidity: 70%   Direction: NA
Pressure: 30.18"   Gusts: NA
Location:  41.73°N, 93.6°W
Report Text: KIKV 271655Z AUTO VRB05KT 10SM CLR 04/M01 A3018 RMK AO2
Loading
Personal Weather Stations






























Interactive Weather Map New forecast layout! Learn more

10-Day Weather Forecast

Advertisements
Track Severe Weather on mobile